Time;durP1;ratioP1;P1;durP2;ratioP2;P2;SDS_P1;SDS_P2;PMS_P1;PMS_P2;Temp;Humidity;BMP_temperature;BMP_pressure;BME280_temperature;BME280_humidity;BME280_pressure;Samples;Min_cycle;Max_cycle;Signal;HPM_P1;HPM_P2
2022/01/12 11:55:44;;;;;;;;;20.00;18.00;;;;;11.64;56.25;103650.47;5078544;27;45546;-84
2022/01/12 11:58:16;;;;;;;;;19.00;17.00;;;;;11.92;56.29;103643.56;5085059;27;45537;-84
2022/01/12 12:00:41;;;;;;;;;17.67;14.67;;;;;12.08;54.89;103649.34;5053717;27;45612;-84
2022/01/12 12:03:13;;;;;;;;;18.67;14.33;;;;;12.24;54.91;103643.63;5055288;27;45541;-85
2022/01/12 12:05:39;;;;;;;;;14.33;12.67;;;;;12.47;55.05;103651.88;5052265;28;45618;-84
2022/01/12 12:08:04;;;;;;;;;18.00;16.00;;;;;12.43;54.95;103621.81;5053676;27;45498;-82
2022/01/12 12:10:34;;;;;;;;;15.33;14.67;;;;;12.57;53.97;103601.88;5066394;28;46970;-83
2022/01/12 12:12:59;;;;;;;;;13.33;12.00;;;;;12.60;53.86;103591.13;5055916;28;47119;-83
2022/01/12 12:15:25;;;;;;;;;15.00;13.33;;;;;12.99;53.71;103621.06;5036961;28;45706;-83
2022/01/12 12:17:51;;;;;;;;;15.33;14.00;;;;;13.11;53.63;103620.66;5051942;28;45818;-83
2022/01/12 12:20:20;;;;;;;;;16.67;15.00;;;;;13.12;53.27;103609.09;5067253;27;47350;-83
2022/01/12 12:22:47;;;;;;;;;13.67;13.33;;;;;13.31;52.62;103613.81;5052277;27;45571;-83
2022/01/12 12:25:16;;;;;;;;;17.33;15.67;;;;;13.39;53.01;103610.91;5054095;27;45638;-84
2022/01/12 12:27:44;;;;;;;;;22.00;17.67;;;;;13.50;52.08;103618.53;5052758;28;52774;-83
2022/01/12 12:30:14;;;;;;;;;17.67;16.00;;;;;13.30;52.01;103569.41;5070090;27;45665;-83
2022/01/12 12:32:41;;;;;;;;;17.00;16.50;;;;;13.70;51.83;103617.00;5045845;28;45726;-84
2022/01/12 12:35:19;;;;;;;;;18.00;16.67;;;;;13.52;51.58;103579.34;5068279;27;47574;-84
2022/01/12 12:37:53;;;;;;;;;13.00;12.75;;;;;13.82;51.07;103608.59;5056091;27;45557;-84
2022/01/12 12:40:29;;;;;;;;;11.00;9.75;;;;;13.92;51.07;103600.25;5053172;27;46101;-83
2022/01/12 12:43:17;;;;;;;;;11.33;11.33;;;;;13.99;51.32;103608.91;5069534;27;47164;-83
2022/01/12 12:45:56;;;;;;;;;15.33;14.33;;;;;14.01;51.12;103605.25;5061400;27;47765;-83
2022/01/12 12:48:28;;;;;;;;;18.33;16.67;;;;;14.12;50.76;103617.31;5050879;28;46272;-82
2022/01/12 12:51:08;;;;;;;;;13.50;12.25;;;;;14.05;50.71;103593.56;5053453;27;45519;-84
2022/01/12 12:53:38;;;;;;;;;11.75;11.75;;;;;14.15;50.51;103594.06;5068647;27;45606;-84
2022/01/12 12:56:04;;;;;;;;;18.00;17.67;;;;;14.01;49.84;103567.00;5067328;27;45617;-83
2022/01/12 12:58:30;;;;;;;;;19.00;17.00;;;;;14.16;49.97;103573.59;5032918;27;46082;-84
2022/01/12 13:01:05;;;;;;;;;17.00;16.75;;;;;14.32;49.90;103600.56;5051507;28;45722;-83
2022/01/12 13:03:30;;;;;;;;;16.75;13.75;;;;;14.42;49.61;103606.44;5062500;27;45572;-83
2022/01/12 13:05:56;;;;;;;;;10.75;10.00;;;;;14.47;49.87;103620.50;5044640;27;46483;-83
2022/01/12 13:08:21;;;;;;;;;18.50;16.50;;;;;14.46;49.72;103604.50;5053346;27;45593;-83
2022/01/12 13:10:46;;;;;;;;;11.75;11.00;;;;;14.57;49.70;103614.81;5038850;28;45809;-83
2022/01/12 13:13:12;;;;;;;;;11.25;10.25;;;;;14.55;49.39;103609.50;5071031;27;45571;-84
2022/01/12 13:15:39;;;;;;;;;20.75;16.75;;;;;14.29;49.27;103558.84;5037774;28;46446;-84
2022/01/12 13:18:13;;;;;;;;;12.25;11.75;;;;;14.65;48.81;103606.50;5039738;28;45551;-84
2022/01/12 13:23:30;;;;;;;;;14.50;13.00;;;;;14.66;49.08;103602.91;5042581;28;45714;-83
2022/01/12 13:25:57;;;;;;;;;12.00;11.00;;;;;14.46;48.81;103565.31;5070172;27;45592;-83
2022/01/12 13:28:22;;;;;;;;;12.75;10.25;;;;;14.50;48.45;103558.94;5071416;27;45588;-83
2022/01/12 13:30:53;;;;;;;;;16.25;13.50;;;;;14.54;48.41;103562.38;5043963;28;45414;-83
2022/01/12 13:33:37;;;;;;;;;14.75;12.75;;;;;14.81;48.36;103596.06;5037202;28;45611;-83
2022/01/12 13:36:14;;;;;;;;;14.50;10.75;;;;;14.84;48.22;103598.63;5049523;28;45722;-83
2022/01/12 13:38:40;;;;;;;;;12.00;12.00;;;;;14.78;48.19;103580.13;5042396;28;45388;-83
2022/01/12 13:41:21;;;;;;;;;15.25;12.50;;;;;14.84;48.52;103577.22;5036298;28;45494;-83
2022/01/12 13:43:49;;;;;;;;;12.50;11.50;;;;;14.77;48.35;103557.03;5043909;28;45582;-83
2022/01/12 13:46:17;;;;;;;;;11.50;11.00;;;;;14.64;47.85;103524.56;5050715;28;47645;-83
2022/01/12 13:51:37;;;;;;;;;11.75;10.25;;;;;14.90;47.75;103562.78;5037134;28;45625;-84
2022/01/12 13:54:21;;;;;;;;;9.00;7.00;;;;;14.95;47.82;103569.69;5049278;28;46223;-83
2022/01/12 13:56:49;;;;;;;;;10.00;10.00;;;;;15.00;48.03;103573.97;5041236;28;48614;-84
2022/01/12 13:59:17;;;;;;;;;9.50;8.50;;;;;14.92;48.43;103551.09;5066559;28;45548;-83
2022/01/12 14:01:43;;;;;;;;;11.50;9.00;;;;;14.95;47.37;103561.66;5067900;27;45527;-84
2022/01/12 14:06:39;;;;;;;;;10.75;9.50;;;;;15.02;47.43;103556.94;5036463;28;45439;-83
2022/01/12 14:09:34;;;;;;;;;8.50;8.50;;;;;15.04;47.73;103551.50;5058553;28;45482;-85
2022/01/12 14:12:16;;;;;;;;;7.00;7.00;;;;;15.04;47.85;103548.84;5050981;28;46513;-84
2022/01/12 14:14:54;;;;;;;;;10.00;9.50;;;;;15.10;47.68;103545.03;5041433;28;45396;-84
2022/01/12 14:17:43;;;;;;;;;13.25;11.75;;;;;15.10;47.93;103540.56;5042883;28;46234;-84
2022/01/12 14:20:21;;;;;;;;;12.75;10.00;;;;;15.13;46.88;103542.25;5040585;28;45867;-84
2022/01/12 14:22:50;;;;;;;;;8.75;8.00;;;;;15.10;47.67;103537.88;5044472;28;45435;-84
2022/01/12 14:25:17;;;;;;;;;13.50;9.00;;;;;15.10;47.49;103532.53;5031731;28;45697;-84
2022/01/12 14:27:44;;;;;;;;;10.25;9.50;;;;;15.15;47.52;103543.91;5053152;28;45612;-84
2022/01/12 14:30:11;;;;;;;;;8.00;7.50;;;;;15.17;47.54;103544.72;5036335;28;45383;-83
2022/01/12 14:32:37;;;;;;;;;8.75;7.25;;;;;15.04;47.66;103516.75;5042472;28;45604;-84
2022/01/12 14:35:13;;;;;;;;;12.25;11.00;;;;;15.20;47.94;103548.22;5041742;28;45376;-84
2022/01/12 14:37:39;;;;;;;;;11.50;10.00;;;;;15.14;47.47;103526.16;5040842;28;46417;-84
2022/01/12 14:40:05;;;;;;;;;7.50;7.50;;;;;15.18;47.75;103545.59;5053357;28;50954;-84
2022/01/12 14:42:52;;;;;;;;;14.00;11.00;;;;;15.20;46.98;103545.53;5019669;28;45456;-83
2022/01/12 14:45:21;;;;;;;;;11.25;10.50;;;;;15.21;46.94;103541.91;5055485;28;45408;-84
2022/01/12 14:47:47;;;;;;;;;14.50;11.00;;;;;15.20;47.05;103537.50;5039945;28;46626;-84
2022/01/12 14:50:12;;;;;;;;;11.75;9.25;;;;;15.25;46.34;103546.19;5031794;28;45594;-84
2022/01/12 14:52:38;;;;;;;;;7.00;7.00;;;;;15.24;47.05;103549.81;5032175;28;47084;-84
2022/01/12 14:55:04;;;;;;;;;10.00;9.00;;;;;15.25;47.35;103559.56;5041378;28;46951;-85
2022/01/12 14:57:29;;;;;;;;;9.00;8.25;;;;;15.26;47.02;103553.31;5030371;28;46529;-84
2022/01/12 14:59:54;;;;;;;;;9.50;9.00;;;;;14.97;47.00;103504.59;5032390;28;46168;-84
2022/01/12 15:02:20;;;;;;;;;10.00;10.00;;;;;15.19;47.17;103533.09;5037543;28;45537;-85
2022/01/12 15:04:45;;;;;;;;;12.25;10.25;;;;;14.97;46.39;103501.91;5026336;28;45662;-84
2022/01/12 15:07:11;;;;;;;;;10.75;10.00;;;;;15.22;47.12;103532.97;5032339;28;45616;-84
2022/01/12 15:09:36;;;;;;;;;11.00;9.25;;;;;15.18;46.89;103529.53;5050429;28;45927;-85
2022/01/12 15:12:02;;;;;;;;;9.75;7.50;;;;;15.26;46.81;103537.25;5035667;28;45555;-84
2022/01/12 15:17:04;;;;;;;;;8.25;8.00;;;;;15.20;46.93;103517.00;5039905;28;50429;-85
2022/01/12 15:19:31;;;;;;;;;12.50;11.25;;;;;15.26;46.63;103521.22;5036043;28;47222;-84
2022/01/12 15:21:56;;;;;;;;;12.00;10.50;;;;;15.33;46.54;103528.03;5013439;28;45610;-85
2022/01/12 15:24:22;;;;;;;;;7.75;6.50;;;;;15.11;46.55;103491.50;5049105;28;48228;-85
2022/01/12 15:26:47;;;;;;;;;10.00;9.00;;;;;15.33;46.96;103528.03;5037026;28;46745;-85
2022/01/12 15:29:12;;;;;;;;;9.25;7.75;;;;;15.26;47.03;103511.34;5033535;28;48396;-85
2022/01/12 15:31:38;;;;;;;;;9.00;8.50;;;;;15.28;46.89;103520.22;5035367;28;47158;-84
2022/01/12 15:34:03;;;;;;;;;12.75;10.00;;;;;15.28;47.02;103519.34;5031033;28;45781;-84
2022/01/12 15:36:29;;;;;;;;;11.25;9.25;;;;;15.32;46.90;103531.63;5032782;28;47314;-85
2022/01/12 15:38:55;;;;;;;;;12.50;10.25;;;;;15.03;46.84;103489.13;5030853;28;45742;-84
2022/01/12 15:41:20;;;;;;;;;9.50;8.50;;;;;15.26;46.98;103515.84;5065546;27;46968;-84
2022/01/12 15:43:47;;;;;;;;;13.00;11.75;;;;;15.24;46.76;103509.69;5066113;27;45774;-84
2022/01/12 15:46:13;;;;;;;;;10.50;9.50;;;;;15.24;46.91;103518.59;5034009;28;45911;-83
2022/01/12 15:48:40;;;;;;;;;9.00;8.00;;;;;15.16;46.87;103488.63;5053766;28;45770;-83
2022/01/12 15:51:06;;;;;;;;;10.25;8.50;;;;;15.36;47.10;103517.19;5051110;28;45616;-84
2022/01/12 15:53:31;;;;;;;;;10.00;10.00;;;;;15.36;47.12;103519.88;5033886;28;45557;-83
2022/01/12 15:55:57;;;;;;;;;8.00;6.25;;;;;15.43;47.19;103533.84;5031228;28;55082;-84
2022/01/12 15:58:22;;;;;;;;;10.00;9.00;;;;;15.20;47.44;103489.38;5052916;28;45583;-84
2022/01/12 16:00:48;;;;;;;;;11.50;11.00;;;;;15.39;47.32;103524.22;5030841;28;47936;-84
2022/01/12 16:03:13;;;;;;;;;10.50;9.75;;;;;15.36;47.09;103527.88;5058664;28;45593;-84
2022/01/12 16:05:39;;;;;;;;;10.00;8.00;;;;;15.34;47.24;103521.75;5027035;28;46028;-85
2022/01/12 16:08:05;;;;;;;;;10.00;9.00;;;;;15.41;47.23;103527.69;5046046;28;45515;-85
2022/01/12 16:10:30;;;;;;;;;10.00;9.00;;;;;15.23;47.48;103486.56;5069638;27;45433;-85
2022/01/12 16:13:00;;;;;;;;;9.75;9.00;;;;;15.32;47.09;103509.38;5064063;28;45437;-85
2022/01/12 16:15:26;;;;;;;;;11.50;9.25;;;;;15.39;47.30;103526.88;5047770;28;46371;-85
2022/01/12 16:17:51;;;;;;;;;7.00;6.50;;;;;15.46;47.17;103543.56;5022142;28;45652;-85
2022/01/12 16:20:18;;;;;;;;;9.00;9.00;;;;;15.45;47.25;103531.09;5050150;28;45309;-85
2022/01/12 16:22:43;;;;;;;;;9.50;8.75;;;;;15.36;46.97;103503.81;5020732;28;45620;-84
2022/01/12 16:25:09;;;;;;;;;8.00;6.25;;;;;15.39;47.38;103505.47;5018871;28;54101;-84
2022/01/12 16:27:35;;;;;;;;;8.25;6.25;;;;;15.31;47.67;103495.13;5049319;28;45414;-84
2022/01/12 16:30:03;;;;;;;;;9.25;7.25;;;;;15.35;47.41;103493.16;5052940;28;45382;-85
2022/01/12 16:32:30;;;;;;;;;6.50;6.50;;;;;15.43;46.99;103509.78;5048901;28;45531;-86
2022/01/12 16:34:59;;;;;;;;;8.75;8.00;;;;;15.25;47.60;103482.00;5041023;28;48223;-87
2022/01/12 16:37:24;;;;;;;;;8.50;7.25;;;;;15.30;47.05;103485.34;5044204;28;45427;-85
2022/01/12 16:39:50;;;;;;;;;7.75;7.75;;;;;15.33;46.52;103487.03;5044920;28;45523;-87
2022/01/12 16:42:15;;;;;;;;;9.25;7.50;;;;;15.39;47.19;103503.69;5024203;28;49591;-85
2022/01/12 16:44:40;;;;;;;;;10.75;8.00;;;;;15.45;47.53;103515.03;5055485;28;47305;-86
2022/01/12 16:47:06;;;;;;;;;11.50;9.50;;;;;15.43;47.11;103515.13;5061648;27;45580;-84
2022/01/12 16:49:31;;;;;;;;;10.75;9.50;;;;;15.30;46.26;103492.50;5048326;28;45515;-84
2022/01/12 16:51:57;;;;;;;;;7.00;7.00;;;;;15.16;47.02;103478.81;5061907;28;47709;-83
2022/01/12 16:54:22;;;;;;;;;11.25;8.00;;;;;15.47;46.89;103529.22;5021042;28;45862;-84
2022/01/12 16:56:48;;;;;;;;;12.50;10.50;;;;;15.17;47.12;103488.53;5055984;28;45422;-85
2022/01/12 16:59:13;;;;;;;;;10.00;9.00;;;;;15.39;46.69;103511.72;5048459;28;46366;-84
2022/01/12 17:01:39;;;;;;;;;10.25;8.00;;;;;15.45;46.72;103531.09;5074433;27;45416;-85
2022/01/12 17:04:04;;;;;;;;;12.75;10.25;;;;;15.44;46.87;103535.56;5046522;28;46357;-87
2022/01/12 17:06:30;;;;;;;;;8.00;8.00;;;;;15.39;46.50;103522.41;5051006;28;45363;-86
2022/01/12 17:08:55;;;;;;;;;11.50;10.50;;;;;15.21;46.07;103496.44;5048930;28;45467;-84
2022/01/12 17:11:21;;;;;;;;;10.75;9.00;;;;;15.33;46.35;103521.78;5056438;28;45534;-84
2022/01/12 17:13:47;;;;;;;;;9.00;9.00;;;;;15.21;46.32;103507.13;5034322;28;46970;-85
2022/01/12 17:16:31;;;;;;;;;10.75;10.00;;;;;15.48;46.49;103550.56;5040218;28;45459;-85
2022/01/12 17:19:00;;;;;;;;;6.25;5.75;;;;;15.34;46.61;103524.41;5068637;28;45595;-87
2022/01/12 17:21:26;;;;;;;;;8.75;8.75;;;;;15.46;46.27;103543.56;5092459;27;45740;-86
2022/01/12 17:24:01;;;;;;;;;9.75;9.75;;;;;15.45;46.83;103541.81;5026493;28;45510;-87
2022/01/12 17:26:38;;;;;;;;;10.75;8.75;;;;;15.51;46.20;103549.56;5034468;28;45379;-86
2022/01/12 17:29:04;;;;;;;;;10.25;10.25;;;;;15.52;46.20;103550.44;5058604;28;45578;-86
2022/01/12 17:31:31;;;;;;;;;11.25;10.50;;;;;15.49;45.94;103546.94;5058217;28;45448;-86
2022/01/12 17:33:59;;;;;;;;;7.50;7.50;;;;;15.41;46.31;103532.16;5023293;28;45473;-86
2022/01/12 17:36:45;;;;;;;;;13.00;10.00;;;;;15.47;46.39;103539.91;5051589;28;50789;-86
2022/01/12 17:39:15;;;;;;;;;13.25;11.75;;;;;15.41;46.67;103529.47;5039798;28;45495;-85
2022/01/12 17:41:46;;;;;;;;;8.75;8.75;;;;;15.44;46.04;103537.38;5056678;27;45779;-84
2022/01/12 17:44:12;;;;;;;;;10.25;10.00;;;;;15.47;45.67;103539.91;5046241;28;45857;-84
2022/01/12 17:46:39;;;;;;;;;10.00;8.25;;;;;15.52;45.77;103558.47;5050656;28;45498;-84
2022/01/12 17:49:11;;;;;;;;;7.75;7.25;;;;;15.43;45.97;103543.69;5054451;28;45561;-84
2022/01/12 17:51:36;;;;;;;;;5.75;4.00;;;;;15.52;45.77;103558.47;5035098;28;45508;-83
2022/01/12 17:54:01;;;;;;;;;10.00;9.25;;;;;15.49;45.31;103556.81;5048276;28;46846;-84
2022/01/12 17:56:27;;;;;;;;;9.50;9.50;;;;;15.41;45.07;103550.88;5032216;28;45581;-84
2022/01/12 17:58:52;;;;;;;;;9.25;8.50;;;;;15.40;45.13;103552.72;5033515;28;45738;-84
2022/01/12 18:01:18;;;;;;;;;12.00;11.25;;;;;15.15;45.40;103529.66;5043160;27;45472;-82
2022/01/12 18:03:43;;;;;;;;;8.00;8.00;;;;;15.27;45.31;103555.91;5052793;28;45678;-83
2022/01/12 18:06:09;;;;;;;;;10.00;9.50;;;;;15.04;45.13;103516.75;5047517;28;45494;-83
2022/01/12 18:08:34;;;;;;;;;10.75;10.25;;;;;15.23;45.43;103564.13;5047578;28;45427;-83
2022/01/12 18:11:01;;;;;;;;;15.50;13.00;;;;;14.98;45.47;103517.00;5052019;28;45492;-83
2022/01/12 18:13:26;;;;;;;;;15.00;14.75;;;;;15.28;45.15;103588.88;5043480;28;45518;-83
2022/01/12 18:15:55;;;;;;;;;11.25;10.75;;;;;15.17;45.50;103571.44;5054188;28;45495;-84
2022/01/12 18:18:23;;;;;;;;;12.00;11.00;;;;;15.14;45.62;103571.59;5036367;28;45555;-83
2022/01/12 18:20:48;;;;;;;;;12.00;11.25;;;;;15.14;45.46;103579.63;5049282;28;45499;-83
2022/01/12 18:23:14;;;;;;;;;15.00;13.75;;;;;14.88;45.63;103536.13;5050428;28;46463;-84
2022/01/12 18:25:39;;;;;;;;;13.00;11.00;;;;;14.84;45.56;103537.13;5059628;28;45498;-83
2022/01/12 18:28:05;;;;;;;;;12.75;10.50;;;;;15.05;45.59;103566.63;5047791;28;45473;-83
2022/01/12 18:30:30;;;;;;;;;12.00;12.00;;;;;15.02;45.15;103570.31;5052203;28;45467;-83
2022/01/12 18:32:56;;;;;;;;;11.25;9.75;;;;;14.98;45.08;103576.69;5043315;28;46625;-83
2022/01/12 18:35:21;;;;;;;;;13.00;11.50;;;;;14.76;45.31;103540.13;5066652;28;45329;-83
2022/01/12 18:37:47;;;;;;;;;13.25;11.50;;;;;14.99;45.31;103577.56;5031214;28;45362;-83
2022/01/12 18:40:18;;;;;;;;;11.25;11.25;;;;;14.72;45.32;103539.38;5051932;28;45376;-83
2022/01/12 18:42:44;;;;;;;;;13.25;10.00;;;;;14.82;45.23;103550.56;5036178;28;46545;-83
2022/01/12 18:45:09;;;;;;;;;11.75;10.00;;;;;14.86;45.84;103559.31;5037689;28;45496;-83
2022/01/12 18:47:34;;;;;;;;;11.75;11.00;;;;;14.73;45.78;103541.13;5052901;28;45736;-82
2022/01/12 18:50:00;;;;;;;;;14.00;14.00;;;;;14.82;45.93;103563.06;5053082;28;45424;-84
2022/01/12 18:52:25;;;;;;;;;11.25;11.25;;;;;14.83;45.90;103564.81;5048624;28;48759;-83
2022/01/12 18:54:51;;;;;;;;;17.00;13.75;;;;;14.79;45.53;103571.19;5053553;28;47216;-83
2022/01/12 18:57:16;;;;;;;;;12.75;12.75;;;;;14.78;45.40;103553.41;5050826;28;45424;-83
2022/01/12 18:59:41;;;;;;;;;12.75;12.00;;;;;14.69;45.25;103554.66;5057417;28;45353;-83
2022/01/12 19:02:08;;;;;;;;;13.00;11.75;;;;;14.48;45.48;103526.06;5031759;28;46604;-83
2022/01/12 19:04:33;;;;;;;;;16.00;11.75;;;;;14.60;45.42;103545.22;5056935;28;45313;-85
2022/01/12 19:06:59;;;;;;;;;13.25;13.25;;;;;14.60;45.89;103550.56;5037677;28;49696;-83
2022/01/12 19:09:24;;;;;;;;;11.50;10.00;;;;;14.46;45.90;103540.41;5053384;28;45412;-83
2022/01/12 19:11:50;;;;;;;;;13.75;13.75;;;;;14.34;45.46;103525.75;5042131;28;50857;-83
2022/01/12 19:14:16;;;;;;;;;13.50;12.75;;;;;14.41;45.30;103537.91;5060882;28;46185;-83
2022/01/12 19:16:44;;;;;;;;;13.50;11.75;;;;;14.56;45.86;103562.28;5062142;27;45395;-84
2022/01/12 19:19:09;;;;;;;;;9.75;9.75;;;;;14.58;45.68;103571.13;5069481;27;45510;-84
2022/01/12 19:21:35;;;;;;;;;10.25;10.25;;;;;14.54;45.22;103582.88;5035748;28;45946;-83
2022/01/12 19:24:01;;;;;;;;;13.50;13.50;;;;;14.50;46.08;103576.75;5054020;28;45369;-84
2022/01/12 19:26:28;;;;;;;;;15.50;12.50;;;;;14.53;45.85;103581.13;5026367;28;45497;-83
2022/01/12 19:28:54;;;;;;;;;11.75;11.00;;;;;14.19;45.83;103536.09;5025420;28;45540;-83
2022/01/12 19:31:19;;;;;;;;;16.25;16.25;;;;;14.42;45.64;103574.41;5056976;28;46494;-83
2022/01/12 19:33:45;;;;;;;;;16.50;13.50;;;;;14.24;45.98;103549.25;5036153;28;45509;-85
2022/01/12 19:36:10;;;;;;;;;14.00;12.25;;;;;14.38;46.20;103573.63;5053605;28;47047;-84
2022/01/12 19:38:36;;;;;;;;;14.00;14.00;;;;;14.42;45.66;103569.06;5058893;28;45533;-84
2022/01/12 19:41:01;;;;;;;;;14.00;13.50;;;;;14.36;45.61;103569.28;5056817;28;45849;-84
2022/01/12 19:43:27;;;;;;;;;15.00;12.75;;;;;14.03;45.68;103525.97;5038152;28;45513;-83
2022/01/12 19:45:52;;;;;;;;;14.25;12.25;;;;;14.26;46.09;103561.63;5062910;28;45260;-84
2022/01/12 19:48:18;;;;;;;;;11.25;11.25;;;;;14.16;46.04;103549.56;5046526;28;45423;-83
2022/01/12 19:50:43;;;;;;;;;14.67;14.67;;;;;14.32;45.73;103573.88;5047848;28;45881;-83
2022/01/12 19:53:28;;;;;;;;;13.25;11.25;;;;;14.31;46.12;103576.59;5048881;28;45416;-83
2022/01/12 19:55:59;;;;;;;;;14.00;12.00;;;;;14.28;45.87;103573.13;5044715;28;45447;-84
2022/01/12 19:58:54;;;;;;;;;16.67;16.33;;;;;14.21;46.08;103571.59;5056086;28;45424;-82
2022/01/12 20:01:22;;;;;;;;;16.33;13.33;;;;;14.24;45.75;103583.97;5008834;28;45688;-82
2022/01/12 20:03:49;;;;;;;;;19.00;15.00;;;;;14.18;45.88;103574.38;5011056;28;45553;-84
2022/01/12 20:06:14;;;;;;;;;10.50;9.25;;;;;14.21;46.08;103592.97;4980213;28;45566;-83
2022/01/12 20:08:47;;;;;;;;;14.00;14.00;;;;;14.19;46.09;103576.13;5007953;28;46361;-83
2022/01/12 20:11:18;;;;;;;;;13.33;13.33;;;;;14.16;45.81;103584.25;4987570;28;46478;-84
2022/01/12 20:13:43;;;;;;;;;17.00;15.33;;;;;13.82;46.05;103530.31;4991976;28;45313;-82
2022/01/12 20:16:15;;;;;;;;;15.67;15.00;;;;;14.14;45.80;103586.13;4976485;28;45591;-83
2022/01/12 20:21:47;;;;;;;;;15.00;14.00;;;;;14.10;45.88;103589.81;4996578;28;45802;-83
2022/01/12 20:24:46;;;;;;;;;14.67;14.00;;;;;14.07;46.24;103581.00;4989671;28;45618;-84
2022/01/12 20:27:23;;;;;;;;;19.67;16.67;;;;;14.03;45.90;103574.03;5010654;28;45823;-84
2022/01/12 20:29:52;;;;;;;;;17.67;17.00;;;;;14.03;46.35;103573.16;4989139;28;45406;-83
2022/01/12 20:32:19;;;;;;;;;16.00;14.00;;;;;13.95;45.93;103555.63;5018256;28;45656;-83
2022/01/12 20:34:46;;;;;;;;;12.67;11.33;;;;;14.00;46.32;103562.63;5007713;28;46514;-83
2022/01/12 20:37:12;;;;;;;;;15.33;15.33;;;;;13.89;45.89;103549.63;5016235;28;45522;-83
2022/01/12 20:39:37;;;;;;;;;14.25;14.25;;;;;13.90;46.47;103556.72;5055845;28;45390;-83
2022/01/12 20:42:04;;;;;;;;;15.33;15.00;;;;;13.93;45.78;103561.97;5046346;28;46388;-83
2022/01/12 20:44:30;;;;;;;;;12.00;12.00;;;;;13.84;45.94;103550.69;5047140;28;45975;-83
2022/01/12 20:46:55;;;;;;;;;17.33;14.00;;;;;13.87;45.98;103560.38;5033364;28;45296;-83
2022/01/12 20:49:21;;;;;;;;;15.25;14.00;;;;;13.91;46.00;103577.16;5062437;28;45523;-83
2022/01/12 20:51:46;;;;;;;;;15.67;14.00;;;;;13.61;45.66;103536.38;5045606;28;45336;-83
2022/01/12 20:54:12;;;;;;;;;15.33;15.33;;;;;13.83;46.07;103575.63;5041065;28;49232;-83
2022/01/12 20:56:38;;;;;;;;;17.67;16.00;;;;;13.88;45.52;103585.28;5079403;27;45890;-83
2022/01/12 20:59:04;;;;;;;;;16.67;12.00;;;;;13.74;46.11;103578.59;5045989;28;45605;-83
2022/01/12 21:01:29;;;;;;;;;16.67;12.67;;;;;13.69;46.01;103569.91;5039850;28;45586;-83
2022/01/12 21:03:54;;;;;;;;;14.33;14.00;;;;;13.78;46.37;103588.25;5019872;28;45273;-82
2022/01/12 21:06:20;;;;;;;;;13.00;12.67;;;;;13.81;46.07;103604.16;5051185;28;45626;-83
2022/01/12 21:08:46;;;;;;;;;17.00;15.67;;;;;13.70;46.49;103587.66;5035173;28;45603;-83
2022/01/12 21:11:11;;;;;;;;;14.33;13.33;;;;;13.78;46.54;103587.38;5048449;28;46390;-84
2022/01/12 21:13:36;;;;;;;;;15.00;13.67;;;;;13.74;45.83;103590.16;5051163;27;51257;-83
2022/01/12 21:16:02;;;;;;;;;12.33;12.33;;;;;13.78;45.83;103596.28;5060633;28;45538;-82
2022/01/12 21:18:28;;;;;;;;;14.33;14.33;;;;;13.59;45.96;103570.25;5060655;28;45460;-83
2022/01/12 21:20:54;;;;;;;;;18.33;16.00;;;;;13.69;46.35;103591.25;5044361;28;45932;-81
2022/01/12 21:23:23;;;;;;;;;16.00;16.00;;;;;13.40;46.23;103562.84;5044360;28;46596;-82
2022/01/12 21:25:49;;;;;;;;;16.67;15.67;;;;;13.56;45.94;103596.13;5040300;28;45647;-82
2022/01/12 21:28:15;;;;;;;;;15.33;14.33;;;;;13.67;46.39;103614.44;5045553;28;50708;-81
2022/01/12 21:30:42;;;;;;;;;13.67;13.33;;;;;13.61;46.42;103605.75;5056020;28;45518;-82
2022/01/12 21:33:07;;;;;;;;;19.00;16.33;;;;;13.58;46.19;103600.50;5043591;28;45788;-82
2022/01/12 21:35:35;;;;;;;;;17.33;15.33;;;;;13.58;45.76;103600.50;5051760;28;50253;-81
2022/01/12 21:38:15;;;;;;;;;12.67;12.67;;;;;13.56;46.12;103594.31;5047904;28;46105;-81
2022/01/12 21:40:44;;;;;;;;;15.00;14.67;;;;;13.50;45.99;103586.53;5040686;28;45539;-82
2022/01/12 21:43:10;;;;;;;;;17.33;16.00;;;;;13.49;46.06;103600.78;5041878;28;45434;-82
2022/01/12 21:45:36;;;;;;;;;17.00;14.33;;;;;13.49;46.48;103604.31;5036386;28;45523;-82
2022/01/12 21:48:02;;;;;;;;;17.00;14.00;;;;;13.29;46.74;103576.53;5046990;28;47047;-82
2022/01/12 21:50:28;;;;;;;;;17.00;16.00;;;;;13.46;46.05;103600.88;5061406;28;47173;-82
2022/01/12 21:52:53;;;;;;;;;19.00;17.00;;;;;13.50;46.23;103623.88;5037817;28;45553;-82
2022/01/12 21:55:18;;;;;;;;;18.00;16.67;;;;;13.48;46.65;103615.06;5049999;28;46161;-82
2022/01/12 21:57:45;;;;;;;;;19.00;16.67;;;;;13.48;46.69;103621.25;5056532;28;45386;-82
2022/01/12 22:00:11;;;;;;;;;15.00;14.00;;;;;13.45;46.29;103609.81;5047483;28;46358;-82
2022/01/12 22:02:37;;;;;;;;;19.33;16.33;;;;;13.44;46.08;103610.72;5039771;28;45860;-81
2022/01/12 22:05:05;;;;;;;;;17.33;17.33;;;;;13.21;46.69;103573.25;5056135;28;50330;-82
